createdAt,value
2023-04-25T00:00:18.503Z,62.63
2023-04-25T00:02:45.191Z,62.58
2023-04-25T00:05:12.513Z,61.74
2023-04-25T00:07:39.527Z,61.59
2023-04-25T00:10:07.319Z,61.53
2023-04-25T00:15:10.586Z,61.57
2023-04-25T00:17:39.330Z,61.84
2023-04-25T00:20:08.837Z,61.08
2023-04-25T00:23:06.332Z,61.32
2023-04-25T00:25:57.796Z,61.94
2023-04-25T00:28:33.553Z,61.43
2023-04-25T00:31:00.643Z,63.12
2023-04-25T00:33:27.352Z,62.90
2023-04-25T00:35:54.127Z,61.93
2023-04-25T00:38:22.693Z,61.61
2023-04-25T00:40:49.362Z,61.55
2023-04-25T00:43:33.402Z,62.09
2023-04-25T00:46:02.091Z,62.35
2023-04-25T00:48:29.124Z,62.81
2023-04-25T00:50:58.776Z,62.75
2023-04-25T00:54:02.971Z,64.21
2023-04-25T00:56:48.213Z,63.86
2023-04-25T00:59:16.210Z,64.68
2023-04-25T01:01:45.176Z,63.98
2023-04-25T01:04:12.257Z,64.63
2023-04-25T01:06:39.420Z,64.57
2023-04-25T01:09:06.403Z,64.76
2023-04-25T01:14:08.348Z,64.89
2023-04-25T01:16:35.227Z,64.20
2023-04-25T01:19:02.476Z,64.11
2023-04-25T01:25:11.958Z,64.13
2023-04-25T01:27:45.000Z,64.55
2023-04-25T01:30:11.645Z,65.67
2023-04-25T01:32:41.708Z,64.34
2023-04-25T01:35:10.836Z,63.85
2023-04-25T01:37:42.260Z,63.55
2023-04-25T01:40:11.574Z,63.19
2023-04-25T01:42:42.099Z,63.96
2023-04-25T01:45:09.527Z,63.04
2023-04-25T01:47:36.363Z,63.86
2023-04-25T01:50:04.943Z,62.81
2023-04-25T01:52:44.060Z,62.87
2023-04-25T01:55:25.834Z,62.69
2023-04-25T01:57:52.509Z,61.47
2023-04-25T02:00:19.561Z,62.09
2023-04-25T02:02:46.241Z,62.12
2023-04-25T02:05:15.602Z,61.38
2023-04-25T02:07:42.219Z,61.43
2023-04-25T02:12:44.046Z,62.60
2023-04-25T02:15:11.710Z,61.71
2023-04-25T02:17:53.788Z,61.57
2023-04-25T02:20:24.244Z,61.26
2023-04-25T02:22:51.039Z,60.74
2023-04-25T02:29:23.290Z,60.23
2023-04-25T02:31:56.910Z,59.93
2023-04-25T02:34:23.624Z,61.35
2023-04-25T02:36:53.309Z,60.28
2023-04-25T02:39:20.095Z,60.26
2023-04-25T02:41:46.699Z,59.73
2023-04-25T02:44:14.061Z,59.87
2023-04-25T02:46:40.696Z,59.03
2023-04-25T02:49:07.793Z,60.37
2023-04-25T02:51:34.468Z,59.57
2023-04-25T02:54:01.054Z,59.18
2023-04-25T02:56:28.037Z,59.53
2023-04-25T02:58:54.768Z,59.18
2023-04-25T03:01:49.542Z,60.09
2023-04-25T03:04:32.046Z,60.84
2023-04-25T03:06:58.621Z,60.32
2023-04-25T03:09:25.397Z,59.89
2023-04-25T03:11:51.990Z,59.95
2023-04-25T03:14:18.723Z,60.04
2023-04-25T03:16:46.139Z,60.97
2023-04-25T03:19:12.878Z,60.83
2023-04-25T03:21:39.548Z,60.25
2023-04-25T03:24:06.400Z,60.50
2023-04-25T03:26:33.034Z,60.61
2023-04-25T03:28:59.605Z,60.90
2023-04-25T03:31:26.269Z,61.78
2023-04-25T03:33:53.133Z,60.70
2023-04-25T03:36:19.944Z,60.79
2023-04-25T03:38:46.647Z,61.16
2023-04-25T03:41:13.449Z,60.61
2023-04-25T03:43:40.043Z,61.24
2023-04-25T03:46:06.692Z,61.36
2023-04-25T03:48:33.335Z,61.68
2023-04-25T03:51:00.039Z,61.11
2023-04-25T03:53:26.682Z,61.10
2023-04-25T03:55:53.277Z,60.69
2023-04-25T03:58:19.878Z,61.41
2023-04-25T04:01:08.506Z,61.11
2023-04-25T04:03:37.481Z,61.48
2023-04-25T04:06:29.739Z,62.64
2023-04-25T04:09:21.479Z,63.42
2023-04-25T04:11:48.146Z,63.26
2023-04-25T04:14:14.803Z,63.11
2023-04-25T04:16:41.456Z,63.61
2023-04-25T04:19:08.566Z,63.04
2023-04-25T04:21:35.204Z,63.12
2023-04-25T04:24:01.798Z,64.28
2023-04-25T04:26:34.605Z,64.88
2023-04-25T04:29:01.315Z,66.08
2023-04-25T04:31:27.961Z,66.95
2023-04-25T04:33:54.565Z,67.22
2023-04-25T04:39:35.554Z,66.60
2023-04-25T04:42:06.023Z,67.26
2023-04-25T04:44:36.483Z,67.90
2023-04-25T04:47:07.215Z,68.57
2023-04-25T04:49:34.310Z,68.64
2023-04-25T04:52:01.979Z,70.06
2023-04-25T04:54:31.599Z,69.39
2023-04-25T04:56:58.179Z,69.70
2023-04-25T04:59:24.829Z,69.66
2023-04-25T05:01:51.479Z,71.03
2023-04-25T05:04:18.188Z,71.76
2023-04-25T05:06:48.183Z,71.94
2023-04-25T05:09:16.156Z,74.71
2023-04-25T05:11:42.720Z,73.62
2023-04-25T05:14:09.330Z,73.90
2023-04-25T05:16:36.280Z,74.74
2023-04-25T05:19:02.939Z,75.57
2023-04-25T05:21:29.746Z,75.66
2023-04-25T05:23:56.770Z,77.62
2023-04-25T05:26:23.384Z,76.66
2023-04-25T05:28:51.969Z,76.72
2023-04-25T05:31:18.611Z,76.45
2023-04-25T05:33:45.256Z,77.29
2023-04-25T05:36:11.824Z,77.92
2023-04-25T05:38:38.375Z,76.98
2023-04-25T05:41:05.099Z,77.59
2023-04-25T05:43:31.781Z,77.46
2023-04-25T05:45:58.405Z,78.79
2023-04-25T05:48:25.072Z,78.14
2023-04-25T05:50:52.594Z,78.61
2023-04-25T05:53:20.597Z,79.80
2023-04-25T05:55:47.843Z,79.88
2023-04-25T05:58:14.511Z,79.39
2023-04-25T06:00:42.713Z,79.87
2023-04-25T06:03:10.956Z,79.35
2023-04-25T06:05:37.901Z,79.36
2023-04-25T06:08:04.628Z,79.73
2023-04-25T06:10:46.348Z,79.12
2023-04-25T06:13:25.015Z,78.76
2023-04-25T06:15:56.570Z,79.36
2023-04-25T06:18:23.196Z,78.01
2023-04-25T06:20:52.050Z,78.43
2023-04-25T06:25:53.869Z,77.92
2023-04-25T06:30:55.816Z,75.62
2023-04-25T06:33:23.192Z,75.17
2023-04-25T06:35:55.871Z,74.71
2023-04-25T06:38:22.487Z,75.08
2023-04-25T06:40:49.078Z,75.84
2023-04-25T06:43:15.667Z,75.13
2023-04-25T06:46:14.049Z,74.39
2023-04-25T06:48:53.746Z,74.18
2023-04-25T06:51:21.722Z,73.26
2023-04-25T06:53:50.211Z,72.86
2023-04-25T06:56:17.180Z,73.27
2023-04-25T06:58:43.692Z,72.39
2023-04-25T07:01:10.275Z,71.22
2023-04-25T07:03:38.639Z,71.76
2023-04-25T07:06:05.655Z,71.61
2023-04-25T07:08:32.280Z,70.73
2023-04-25T07:10:59.225Z,70.39
2023-04-25T07:13:25.822Z,70.05
2023-04-25T07:15:52.379Z,69.99
2023-04-25T07:18:18.873Z,69.53
2023-04-25T07:20:45.602Z,69.33
2023-04-25T07:23:12.163Z,68.39
2023-04-25T07:25:38.877Z,68.65
2023-04-25T07:28:05.805Z,68.54
2023-04-25T07:30:32.565Z,68.68
2023-04-25T07:32:59.222Z,68.16
2023-04-25T07:35:25.837Z,67.70
2023-04-25T07:37:52.661Z,68.00
2023-04-25T07:40:19.368Z,68.21
2023-04-25T07:42:46.133Z,67.28
2023-04-25T07:45:12.956Z,66.73
2023-04-25T07:47:39.804Z,67.33
2023-04-25T07:50:07.036Z,66.44
2023-04-25T07:52:33.591Z,64.74
2023-04-25T07:55:00.167Z,64.94
2023-04-25T07:57:26.834Z,64.81
2023-04-25T07:59:53.481Z,63.59
2023-04-25T08:02:20.028Z,63.23
2023-04-25T08:04:47.513Z,61.99
2023-04-25T08:07:14.333Z,62.62
2023-04-25T08:09:40.968Z,62.07
2023-04-25T08:12:07.593Z,61.33
2023-04-25T08:14:37.043Z,61.26
2023-04-25T08:17:04.845Z,61.21
2023-04-25T08:19:31.838Z,61.43
2023-04-25T08:21:58.499Z,60.96
2023-04-25T08:24:25.034Z,60.99
2023-04-25T08:26:52.728Z,59.21
2023-04-25T08:29:19.310Z,60.53
2023-04-25T08:31:49.119Z,59.78
2023-04-25T08:34:16.292Z,59.30
2023-04-25T08:36:42.822Z,58.67
2023-04-25T08:39:09.995Z,58.31
2023-04-25T08:41:38.522Z,58.35
2023-04-25T08:44:06.464Z,57.45
2023-04-25T08:46:33.660Z,57.60
2023-04-25T08:49:03.181Z,57.30
2023-04-25T08:51:32.815Z,57.70
2023-04-25T08:54:23.348Z,56.81
2023-04-25T08:56:59.122Z,57.48
2023-04-25T08:59:26.576Z,57.21
2023-04-25T09:01:53.283Z,56.41
2023-04-25T09:04:22.584Z,55.83
2023-04-25T09:06:49.647Z,55.45
2023-04-25T09:09:16.808Z,56.53
2023-04-25T09:11:43.464Z,55.64
2023-04-25T09:14:26.155Z,56.00
2023-04-25T09:17:01.247Z,55.61
2023-04-25T09:22:05.416Z,54.66
2023-04-25T09:24:38.429Z,55.37
2023-04-25T09:27:06.654Z,57.72
2023-04-25T09:29:35.038Z,54.70
2023-04-25T09:32:22.602Z,54.33
2023-04-25T09:34:58.893Z,53.96
2023-04-25T09:37:28.084Z,54.22
2023-04-25T09:40:06.351Z,53.29
2023-04-25T09:42:35.509Z,52.60
2023-04-25T09:48:54.931Z,53.31
2023-04-25T09:51:26.938Z,52.97
2023-04-25T09:53:53.683Z,51.98
2023-04-25T09:56:21.204Z,51.83
2023-04-25T09:58:48.598Z,52.27
2023-04-25T10:01:17.495Z,51.04
2023-04-25T10:03:45.915Z,51.62
2023-04-25T10:06:24.016Z,52.16
2023-04-25T10:08:54.604Z,50.13
2023-04-25T10:11:24.075Z,50.38
2023-04-25T10:13:51.895Z,50.92
2023-04-25T10:16:18.976Z,50.38
2023-04-25T10:18:45.591Z,49.75
2023-04-25T10:21:13.697Z,50.31
2023-04-25T10:23:41.624Z,51.05
2023-04-25T10:26:13.609Z,50.76
2023-04-25T10:29:01.931Z,52.33
2023-04-25T10:31:28.694Z,51.12
2023-04-25T10:33:55.696Z,50.61
2023-04-25T10:36:24.267Z,49.82
2023-04-25T10:38:52.142Z,49.23
2023-04-25T10:41:20.739Z,48.17
2023-04-25T10:43:49.318Z,48.22
2023-04-25T10:46:26.829Z,47.85
2023-04-25T10:48:54.740Z,47.50
2023-04-25T10:51:24.135Z,46.54
2023-04-25T10:53:56.792Z,47.60
2023-04-25T10:56:26.812Z,47.23
2023-04-25T10:59:05.151Z,46.84
2023-04-25T11:01:39.520Z,46.81
2023-04-25T11:04:07.002Z,47.03
2023-04-25T11:07:09.303Z,46.56
2023-04-25T11:09:38.946Z,46.33
2023-04-25T11:12:08.127Z,47.16
2023-04-25T11:14:34.914Z,45.96
2023-04-25T11:17:02.990Z,45.29
2023-04-25T11:19:30.524Z,45.11
2023-04-25T11:21:58.390Z,44.26
2023-04-25T11:24:35.720Z,44.33
2023-04-25T11:27:03.660Z,43.01
2023-04-25T11:29:31.805Z,43.26
2023-04-25T11:31:59.382Z,43.22
2023-04-25T11:34:27.164Z,44.55
2023-04-25T11:36:54.504Z,43.01
2023-04-25T11:39:22.423Z,42.87
2023-04-25T11:41:49.051Z,41.87
2023-04-25T11:44:19.694Z,42.38
2023-04-25T11:46:47.252Z,41.82
2023-04-25T11:49:19.367Z,42.52
2023-04-25T11:51:48.615Z,41.79
2023-04-25T11:54:16.494Z,41.93
2023-04-25T11:56:44.428Z,41.29
2023-04-25T11:59:35.002Z,42.02
2023-04-25T12:02:47.993Z,40.75
2023-04-25T12:05:31.282Z,40.96
2023-04-25T12:07:59.140Z,41.47
2023-04-25T12:10:27.090Z,39.79
2023-04-25T12:12:55.166Z,40.10
2023-04-25T12:15:26.222Z,39.29
2023-04-25T12:20:34.705Z,37.83
2023-04-25T12:23:01.428Z,38.31
2023-04-25T12:25:39.163Z,37.64
2023-04-25T12:28:15.569Z,37.33
2023-04-25T12:31:00.769Z,38.56
2023-04-25T12:33:49.841Z,38.08
2023-04-25T12:36:40.855Z,39.20
2023-04-25T12:39:24.558Z,37.23
2023-04-25T12:41:54.917Z,38.43
2023-04-25T12:44:22.188Z,36.43
2023-04-25T12:46:49.851Z,34.86
2023-04-25T12:49:26.930Z,35.99
2023-04-25T12:51:53.544Z,36.68
2023-04-25T12:54:20.720Z,36.26
2023-04-25T12:56:47.391Z,34.70
2023-04-25T12:59:14.016Z,35.11
2023-04-25T13:01:40.707Z,35.97
2023-04-25T13:04:07.807Z,36.29
2023-04-25T13:06:37.174Z,36.67
2023-04-25T13:09:04.488Z,35.95
2023-04-25T13:11:31.800Z,35.38
2023-04-25T13:13:58.622Z,34.84
2023-04-25T13:16:25.236Z,35.28
2023-04-25T13:18:52.019Z,35.18
2023-04-25T13:21:18.888Z,35.08
2023-04-25T13:23:47.538Z,35.07
2023-04-25T13:26:14.181Z,35.08
2023-04-25T13:28:42.959Z,35.10
2023-04-25T13:31:11.404Z,35.01
2023-04-25T13:33:37.986Z,36.21
2023-04-25T13:36:04.955Z,35.38
2023-04-25T13:38:31.615Z,35.21
2023-04-25T13:40:58.364Z,35.34
2023-04-25T13:43:24.923Z,34.66
2023-04-25T13:45:51.660Z,35.29
2023-04-25T13:48:19.632Z,34.64
2023-04-25T13:50:46.631Z,35.37
2023-04-25T13:53:13.851Z,34.19
2023-04-25T13:55:40.677Z,34.85
2023-04-25T13:58:11.021Z,35.17
2023-04-25T14:00:40.112Z,33.63
2023-04-25T14:03:22.262Z,33.70
2023-04-25T14:05:50.916Z,34.15
2023-04-25T14:08:17.492Z,35.43
2023-04-25T14:10:44.038Z,35.03
2023-04-25T14:13:29.158Z,35.50
2023-04-25T14:16:16.024Z,35.06
2023-04-25T14:19:04.616Z,34.94
2023-04-25T14:21:33.441Z,34.82
2023-04-25T14:24:00.036Z,35.10
2023-04-25T14:26:26.626Z,35.82
2023-04-25T14:28:53.660Z,35.77
2023-04-25T14:31:20.210Z,36.04
2023-04-25T14:33:47.109Z,35.59
2023-04-25T14:36:13.749Z,35.69
2023-04-25T14:38:40.603Z,35.76
2023-04-25T14:41:07.226Z,35.30
2023-04-25T14:43:33.913Z,35.37
2023-04-25T14:46:00.514Z,34.99
2023-04-25T14:51:02.468Z,34.08
2023-04-25T14:53:29.837Z,34.94
2023-04-25T14:55:56.491Z,34.84
2023-04-25T14:58:23.829Z,35.08
2023-04-25T15:00:50.631Z,35.07
2023-04-25T15:03:42.655Z,35.51
2023-04-25T15:06:37.372Z,35.36
2023-04-25T15:11:39.758Z,35.55
2023-04-25T15:14:06.689Z,36.16
2023-04-25T15:16:33.323Z,35.34
2023-04-25T15:18:59.941Z,35.56
2023-04-25T15:21:27.505Z,35.67
2023-04-25T15:26:29.624Z,35.55
2023-04-25T15:28:56.301Z,36.07
2023-04-25T15:31:23.302Z,36.76
2023-04-25T15:37:27.124Z,36.86
2023-04-25T15:40:10.700Z,36.32
2023-04-25T15:42:38.241Z,36.74
2023-04-25T15:45:09.162Z,36.45
2023-04-25T15:47:36.922Z,36.78
2023-04-25T15:50:08.398Z,36.82
2023-04-25T15:52:36.504Z,37.39
2023-04-25T15:55:07.797Z,38.00
2023-04-25T15:57:35.506Z,40.04
2023-04-25T16:00:13.270Z,42.45
2023-04-25T16:02:40.958Z,43.23
2023-04-25T16:05:09.018Z,43.04
2023-04-25T16:07:36.317Z,42.97
2023-04-25T16:10:03.126Z,42.58
2023-04-25T16:12:31.161Z,42.52
2023-04-25T16:14:58.273Z,42.34
2023-04-25T16:17:25.753Z,42.81
2023-04-25T16:19:52.327Z,42.94
2023-04-25T16:22:19.134Z,42.51
2023-04-25T16:24:45.690Z,42.51
2023-04-25T16:27:12.380Z,42.65
2023-04-25T16:29:39.315Z,42.39
2023-04-25T16:32:06.243Z,42.67
2023-04-25T16:34:32.919Z,43.15
2023-04-25T16:36:59.816Z,43.84
2023-04-25T16:39:26.403Z,43.56
2023-04-25T16:41:53.324Z,43.71
2023-04-25T16:44:19.917Z,44.15
2023-04-25T16:46:46.548Z,44.17
2023-04-25T16:49:13.147Z,44.50
2023-04-25T16:51:39.754Z,44.50
2023-04-25T16:54:06.468Z,43.84
2023-04-25T16:56:36.219Z,44.16
2023-04-25T16:59:02.846Z,44.27
2023-04-25T17:01:29.912Z,43.87
2023-04-25T17:03:56.959Z,43.92
2023-04-25T17:06:23.661Z,44.19
2023-04-25T17:08:51.092Z,43.92
2023-04-25T17:11:18.832Z,43.95
2023-04-25T17:13:46.205Z,44.05
2023-04-25T17:16:16.490Z,44.21
2023-04-25T17:18:44.115Z,45.29
2023-04-25T17:21:10.881Z,45.96
2023-04-25T17:23:37.683Z,44.42
2023-04-25T17:26:04.263Z,44.39
2023-04-25T17:28:31.058Z,44.74
2023-04-25T17:30:58.979Z,44.94
2023-04-25T17:33:27.131Z,45.25
2023-04-25T17:35:54.367Z,44.93
2023-04-25T17:38:21.162Z,44.97
2023-04-25T17:40:47.964Z,44.80
2023-04-25T17:43:14.534Z,45.22
2023-04-25T17:45:41.326Z,46.57
2023-04-25T17:48:08.504Z,46.18
2023-04-25T17:50:35.345Z,46.11
2023-04-25T17:53:05.592Z,47.51
2023-04-25T17:55:32.187Z,46.94
2023-04-25T17:57:58.766Z,47.62
2023-04-25T18:00:25.645Z,47.99
2023-04-25T18:02:52.730Z,47.64
2023-04-25T18:05:19.636Z,47.53
2023-04-25T18:07:46.283Z,47.59
2023-04-25T18:10:14.795Z,47.69
2023-04-25T18:12:41.573Z,48.08
2023-04-25T18:15:09.293Z,47.97
2023-04-25T18:17:40.335Z,48.64
2023-04-25T18:20:14.915Z,49.53
2023-04-25T18:22:43.202Z,49.47
2023-04-25T18:25:13.911Z,49.64
2023-04-25T18:27:41.723Z,49.99
2023-04-25T18:30:10.867Z,50.67
2023-04-25T18:32:38.513Z,51.20
2023-04-25T18:35:10.204Z,50.52
2023-04-25T18:37:41.618Z,50.70
2023-04-25T18:40:12.887Z,51.27
2023-04-25T18:42:39.964Z,51.51
2023-04-25T18:45:07.196Z,50.98
2023-04-25T18:47:33.816Z,51.55
2023-04-25T18:50:03.164Z,52.44
2023-04-25T18:52:29.732Z,52.62
2023-04-25T18:54:56.775Z,53.42
2023-04-25T18:57:23.560Z,52.96
2023-04-25T18:59:50.115Z,53.14
2023-04-25T19:02:18.073Z,53.00
2023-04-25T19:04:44.796Z,52.87
2023-04-25T19:07:11.418Z,52.15
2023-04-25T19:09:38.028Z,52.24
2023-04-25T19:12:05.052Z,53.27
2023-04-25T19:14:33.110Z,52.69
2023-04-25T19:17:00.117Z,52.87
2023-04-25T19:19:27.510Z,52.29
2023-04-25T19:21:54.258Z,51.78
2023-04-25T19:24:21.060Z,51.75
2023-04-25T19:26:47.650Z,51.61
2023-04-25T19:29:15.285Z,51.33
2023-04-25T19:31:44.538Z,51.37
2023-04-25T19:34:11.431Z,51.35
2023-04-25T19:36:39.767Z,51.39
2023-04-25T19:39:07.476Z,51.41
2023-04-25T19:41:36.598Z,51.53
2023-04-25T19:44:08.457Z,51.64
2023-04-25T19:46:36.809Z,51.05
2023-04-25T19:49:07.228Z,51.10
2023-04-25T19:51:34.652Z,51.17
2023-04-25T19:54:01.365Z,50.75
2023-04-25T19:56:28.284Z,50.54
2023-04-25T19:58:56.252Z,50.35
2023-04-25T20:01:23.041Z,50.04
2023-04-25T20:03:53.045Z,49.78
2023-04-25T20:06:19.908Z,49.95
2023-04-25T20:08:47.250Z,50.28
2023-04-25T20:11:14.029Z,51.03
2023-04-25T20:13:40.748Z,50.95
2023-04-25T20:16:07.799Z,50.87
2023-04-25T20:18:34.934Z,50.77
2023-04-25T20:21:02.156Z,50.96
2023-04-25T20:23:28.958Z,50.76
2023-04-25T20:25:55.938Z,50.90
2023-04-25T20:28:23.245Z,51.07
2023-04-25T20:30:50.721Z,51.07
2023-04-25T20:33:17.356Z,51.43
2023-04-25T20:35:44.122Z,51.67
2023-04-25T20:39:00.982Z,51.69
2023-04-25T20:41:48.199Z,51.88
2023-04-25T20:44:14.961Z,53.22
2023-04-25T20:46:41.548Z,53.47
2023-04-25T20:49:08.153Z,53.77
2023-04-25T20:51:35.375Z,54.13
2023-04-25T20:54:05.120Z,54.30
2023-04-25T20:56:51.277Z,53.67
2023-04-25T20:59:18.226Z,54.13
2023-04-25T21:01:45.163Z,54.18
2023-04-25T21:04:11.912Z,54.39
2023-04-25T21:06:53.820Z,53.58
2023-04-25T21:12:52.019Z,54.61
2023-04-25T21:15:21.502Z,55.65
2023-04-25T21:17:49.982Z,55.76
2023-04-25T21:20:18.656Z,55.56
2023-04-25T21:22:50.978Z,55.36
2023-04-25T21:25:24.141Z,54.89
2023-04-25T21:28:09.805Z,55.15
2023-04-25T21:30:36.389Z,55.45
2023-04-25T21:33:03.742Z,55.37
2023-04-25T21:35:30.539Z,56.17
2023-04-25T21:38:15.655Z,55.52
2023-04-25T21:40:56.480Z,55.32
2023-04-25T21:43:23.040Z,55.08
2023-04-25T21:46:14.808Z,54.95
2023-04-25T21:48:36.185Z,55.21
2023-04-25T21:51:02.778Z,55.70
2023-04-25T21:53:29.368Z,56.11
2023-04-25T21:58:31.196Z,57.07
2023-04-25T22:00:59.457Z,57.33
2023-04-25T22:03:26.224Z,57.93
2023-04-25T22:06:03.902Z,57.82
2023-04-25T22:09:21.535Z,58.36
2023-04-25T22:12:04.079Z,58.72
2023-04-25T22:14:31.658Z,59.01
2023-04-25T22:16:58.543Z,58.70
2023-04-25T22:19:25.099Z,59.13
2023-04-25T22:21:58.404Z,59.02
2023-04-25T22:24:29.603Z,58.76
2023-04-25T22:27:11.011Z,59.41
2023-04-25T22:29:37.574Z,59.86
2023-04-25T22:32:04.308Z,59.86
2023-04-25T22:34:30.969Z,59.65
2023-04-25T22:37:22.359Z,59.83
2023-04-25T22:40:07.122Z,59.69
2023-04-25T22:42:38.593Z,59.75
2023-04-25T22:45:06.570Z,59.86
2023-04-25T22:47:33.601Z,60.08
2023-04-25T22:52:35.618Z,59.90
2023-04-25T22:55:03.301Z,60.66
2023-04-25T22:57:30.395Z,60.38
2023-04-25T22:59:59.824Z,60.15
2023-04-25T23:02:27.623Z,60.31
2023-04-25T23:10:32.010Z,60.78
2023-04-25T23:13:00.905Z,60.81
2023-04-25T23:15:31.545Z,59.50
2023-04-25T23:17:58.592Z,59.23
2023-04-25T23:20:25.294Z,59.05
2023-04-25T23:22:51.890Z,59.41
2023-04-25T23:25:26.699Z,59.75
2023-04-25T23:31:17.220Z,59.29
2023-04-25T23:33:43.991Z,59.29
2023-04-25T23:36:19.938Z,60.40
2023-04-25T23:38:46.815Z,60.59
2023-04-25T23:41:13.653Z,60.73
2023-04-25T23:43:40.213Z,61.03
2023-04-25T23:46:07.263Z,60.96
2023-04-25T23:48:33.857Z,60.49
2023-04-25T23:51:01.007Z,61.08
2023-04-25T23:53:27.569Z,61.36
2023-04-25T23:55:54.593Z,61.69
2023-04-25T23:58:21.180Z,62.15
